Friday, November 24, 2017, 12:19 AM GMT
Back to Local

CYBN, Borden, Ont.

Location: , , Canada Lat: 44.25
Local Time: 12:19 AM GMT ( 0:19 GMT) Lon: -79.917
Time Zone: GMT Elev: 731 ft

Show me the last for .
Show Coded

Time T Td Feel RH Dir Speed Gust Alt SLP Vis Weather Sky Remarks
2017-11-24 00:00 34 27 28 74 250° 7 - 29.90 29.93 9 FEW030 OVC050 OVC092 None
2017-11-23 23:00 34 27 25 74 250° 13 - 29.89 29.92 9 OVC052 None
2017-11-23 22:00 34 27 26 74 240° 10 - 29.88 29.90 9 FEW023 BKN050 None
2017-11-23 21:56 34 27 27 74 250° 8 - 29.88 - 9 FEW021 OVC050 None
2017-11-23 21:00 34 28 26 80 220° 10 - 29.87 29.90 9 OVC021 None
2017-11-23 20:23 34 27 27 74 220° 8 - 29.88 - 9 OVC023 None
2017-11-23 20:00 34 27 27 74 210° 8 - 29.88 29.91 9 OVC025 OVC059 OVC065 None
2017-11-23 19:00 36 27 28 69 230° 10 - 29.90 29.93 9 OVC027 None
2017-11-23 18:00 34 27 25 74 220° 13 - 29.92 29.95 9 OVC027 OVC043 None
2017-11-23 17:00 34 25 25 69 200° 12 - 29.95 29.98 9 FEW027 SCT049 BKN054 OVC086 None
2017-11-23 16:00 34 25 27 69 210° 8 - 29.98 30.01 9 OVC025 OVC035 OVC064 None
2017-11-23 15:00 32 23 25 68 180° 8 - 30.00 30.03 9 BKN027 OVC072 None
2017-11-23 14:00 30 23 23 74 180° 7 - 30.02 30.06 9 OVC076 None
2017-11-23 13:00 28 21 22 74 180° 6 - 30.04 30.08 9 SCT034 OVC096 None
2017-11-23 12:00 28 21 22 74 180° 6 - 30.05 30.08 9 OVC032 None
2017-11-23 11:00 30 21 24 68 210° 6 - 30.06 30.09 9 OVC029 None
2017-11-23 10:00 30 23 24 74 200° 6 - 30.08 30.11 9 OVC027 None
2017-11-23 09:00 28 23 23 79 180° 5 - 30.09 30.12 9 OVC036 None
2017-11-23 08:00 30 23 24 74 210° 6 - 30.11 30.14 9 OVC036 None
2017-11-23 07:00 30 23 22 74 240° 9 - 30.10 30.14 9 OVC034 None
2017-11-23 06:00 28 23 22 79 220° 6 - 30.11 30.14 9 OVC032 None
2017-11-23 05:00 28 23 22 79 230° 6 - 30.14 30.17 9 OVC031 None
2017-11-23 04:00 28 23 22 79 240° 6 - 30.15 30.18 9 OVC029 None
2017-11-23 03:00 28 21 21 74 250° 7 - 30.15 30.19 9 OVC037 None
2017-11-23 02:00 28 21 23 74 240° 5 - 30.17 30.21 9 OVC034 OVC075 None
2017-11-23 01:00 27 19 19 73 250° 7 - 30.18 30.21 9 OVC034 None

Support USWX by starting your Amazon purchase here.